Galesville, WI (54630)

2:32 AM CST on December 05, 2016 (GMT -0600)
Holmen | | Change Station

Elev 705 ft 43.96 °N, 91.26 °W | Updated 10 seconds ago

Overcast
Overcast
34.2 °F
Feels Like 34 °F
N
1.8
Wind Variable Wind from SW
Gusts 1.8 mph

Today
High -- | Low -- °F
--% Chance of Precip.
Yesterday
High -- | Low -- °F
Precip. -- in
Pressure 29.90 in
Visibility 10.0 miles
Clouds Overcast 1100 ft
Windchill 34 °F
Dew Point 14 °F
Humidity 43%
Rainfall 0.02 in
Snow Depth Not available.
7:25 AM 4:27 PM
Waxing Crescent, 29% visible
METAR KLSE 050753Z AUTO 22008KT 10SM OVC011 02/01 A2987 RMK AO2 SLP124 T00220006 $
Pressure 29.90 in
Visibility 10.0 miles
Clouds Overcast 1100 ft
Windchill 34 °F
Dew Point 14 °F
Humidity 43%
Rainfall 0.02 in
Snow Depth Not available.
7:25 AM 4:27 PM
Waxing Crescent, 29% visible
METAR KLSE 050753Z AUTO 22008KT 10SM OVC011 02/01 A2987 RMK AO2 SLP124 T00220006 $

10-Day Weather Forecast

Almanac

Astronomy

Dec. 05, 2016 Rise Set
Actual Time
Civil Twilight
Nautical Twilight
Astronomical Twilight
Moon
Length of Visible Light
Length of Day
Tomorrow will be .
, % of the Moon is Illuminated

Today's Extremes

State Highs State Lows

Community

WunderPhotos

Upload Photos

1,955,771 photos uploaded!

WunderBlog® & News

Nearby

Air Quality

  Air Quality AQ Index Pollutant
Not available.

Snow Depth

Station Depth Elevation

Earthquake Activity

City Distance Mag. Time & Date
Minimum magnitude displayed is 2.5.

Coastal Water Temperatures

Place Temperature

Stations

Nearby Weather Stations

Station Location Temp. Windchill Dew Point Humidity Wind Precip. Elev Updated Type
                   

Watches & Warnings

There are currently no watches in effect.